sensor_id;sensor_type;location;lat;lon;timestamp;temperature;humidity
19037;DHT22;9651;49.138;8.900;2023-04-06T00:02:19;2.30;99.90
19037;DHT22;9651;49.138;8.900;2023-04-06T00:06:21;2.40;99.90
19037;DHT22;9651;49.138;8.900;2023-04-06T00:10:23;2.30;99.90
19037;DHT22;9651;49.138;8.900;2023-04-06T00:14:25;2.20;99.90
19037;DHT22;9651;49.138;8.900;2023-04-06T00:18:28;2.10;99.90
19037;DHT22;9651;49.138;8.900;2023-04-06T00:22:31;2.10;99.90
19037;DHT22;9651;49.138;8.900;2023-04-06T00:26:33;2.10;99.90
19037;DHT22;9651;49.138;8.900;2023-04-06T00:30:35;2.10;99.90
19037;DHT22;9651;49.138;8.900;2023-04-06T00:34:38;2.10;99.90
19037;DHT22;9651;49.138;8.900;2023-04-06T00:38:40;2.00;99.90
19037;DHT22;9651;49.138;8.900;2023-04-06T00:42:42;1.80;99.90
19037;DHT22;9651;49.138;8.900;2023-04-06T00:46:45;1.70;99.90
19037;DHT22;9651;49.138;8.900;2023-04-06T00:50:48;1.50;99.90
19037;DHT22;9651;49.138;8.900;2023-04-06T00:54:51;1.30;99.90
19037;DHT22;9651;49.138;8.900;2023-04-06T00:58:55;1.30;99.90
19037;DHT22;9651;49.138;8.900;2023-04-06T01:02:57;1.30;99.90
19037;DHT22;9651;49.138;8.900;2023-04-06T01:07:10;1.30;99.90
19037;DHT22;9651;49.138;8.900;2023-04-06T01:11:20;1.30;99.90
19037;DHT22;9651;49.138;8.900;2023-04-06T01:15:24;1.50;99.90
19037;DHT22;9651;49.138;8.900;2023-04-06T01:19:28;1.60;99.90
19037;DHT22;9651;49.138;8.900;2023-04-06T01:23:32;1.80;99.90
19037;DHT22;9651;49.138;8.900;2023-04-06T01:27:34;1.90;99.90
19037;DHT22;9651;49.138;8.900;2023-04-06T01:32:14;1.90;99.90
19037;DHT22;9651;49.138;8.900;2023-04-06T01:36:23;2.00;99.90
19037;DHT22;9651;49.138;8.900;2023-04-06T01:40:45;2.10;99.90
19037;DHT22;9651;49.138;8.900;2023-04-06T01:44:48;2.10;99.90
19037;DHT22;9651;49.138;8.900;2023-04-06T01:48:51;2.20;99.90
19037;DHT22;9651;49.138;8.900;2023-04-06T01:53:10;2.20;99.90
19037;DHT22;9651;49.138;8.900;2023-04-06T01:57:16;2.30;99.90
19037;DHT22;9651;49.138;8.900;2023-04-06T02:01:22;2.40;99.90
19037;DHT22;9651;49.138;8.900;2023-04-06T02:05:30;2.40;99.90
19037;DHT22;9651;49.138;8.900;2023-04-06T02:09:35;2.50;99.90
19037;DHT22;9651;49.138;8.900;2023-04-06T02:13:42;2.50;99.90
19037;DHT22;9651;49.138;8.900;2023-04-06T02:17:45;2.50;99.90
19037;DHT22;9651;49.138;8.900;2023-04-06T02:21:47;2.60;99.90
19037;DHT22;9651;49.138;8.900;2023-04-06T02:25:49;2.60;99.90
19037;DHT22;9651;49.138;8.900;2023-04-06T02:29:53;2.60;99.90
19037;DHT22;9651;49.138;8.900;2023-04-06T02:33:55;2.70;99.90
19037;DHT22;9651;49.138;8.900;2023-04-06T02:37:57;2.70;99.90
19037;DHT22;9651;49.138;8.900;2023-04-06T02:41:59;2.70;99.90
19037;DHT22;9651;49.138;8.900;2023-04-06T02:46:03;2.70;99.90
19037;DHT22;9651;49.138;8.900;2023-04-06T02:50:09;2.70;99.90
19037;DHT22;9651;49.138;8.900;2023-04-06T02:54:19;2.70;99.90
19037;DHT22;9651;49.138;8.900;2023-04-06T02:58:21;2.70;99.90
19037;DHT22;9651;49.138;8.900;2023-04-06T03:02:30;2.70;99.90
19037;DHT22;9651;49.138;8.900;2023-04-06T03:06:40;2.70;99.90
19037;DHT22;9651;49.138;8.900;2023-04-06T03:10:53;2.70;99.90
19037;DHT22;9651;49.138;8.900;2023-04-06T03:15:00;2.60;99.90
19037;DHT22;9651;49.138;8.900;2023-04-06T03:19:04;2.60;99.90
19037;DHT22;9651;49.138;8.900;2023-04-06T03:23:09;2.40;99.90
19037;DHT22;9651;49.138;8.900;2023-04-06T03:27:15;2.30;99.90
19037;DHT22;9651;49.138;8.900;2023-04-06T03:31:18;2.10;99.90
19037;DHT22;9651;49.138;8.900;2023-04-06T03:35:31;2.00;99.90
19037;DHT22;9651;49.138;8.900;2023-04-06T03:39:33;1.80;99.90
19037;DHT22;9651;49.138;8.900;2023-04-06T03:43:36;1.70;99.90
19037;DHT22;9651;49.138;8.900;2023-04-06T03:47:38;1.60;99.90
19037;DHT22;9651;49.138;8.900;2023-04-06T03:51:43;1.50;99.90
19037;DHT22;9651;49.138;8.900;2023-04-06T03:55:45;1.50;99.90
19037;DHT22;9651;49.138;8.900;2023-04-06T03:59:47;1.50;99.90
19037;DHT22;9651;49.138;8.900;2023-04-06T04:03:49;1.40;99.90
19037;DHT22;9651;49.138;8.900;2023-04-06T04:07:53;1.40;99.90
19037;DHT22;9651;49.138;8.900;2023-04-06T04:11:59;1.50;99.90
19037;DHT22;9651;49.138;8.900;2023-04-06T04:16:01;1.50;99.90
19037;DHT22;9651;49.138;8.900;2023-04-06T04:20:04;1.40;99.90
19037;DHT22;9651;49.138;8.900;2023-04-06T04:24:08;1.20;99.90
19037;DHT22;9651;49.138;8.900;2023-04-06T04:28:11;1.20;99.90
19037;DHT22;9651;49.138;8.900;2023-04-06T04:32:15;1.10;99.90
19037;DHT22;9651;49.138;8.900;2023-04-06T04:36:19;1.20;99.90
19037;DHT22;9651;49.138;8.900;2023-04-06T04:40:22;1.20;99.90
19037;DHT22;9651;49.138;8.900;2023-04-06T04:44:30;1.30;99.90
19037;DHT22;9651;49.138;8.900;2023-04-06T04:48:32;1.20;99.90
19037;DHT22;9651;49.138;8.900;2023-04-06T04:52:37;1.10;99.90
19037;DHT22;9651;49.138;8.900;2023-04-06T04:56:51;1.10;99.90
19037;DHT22;9651;49.138;8.900;2023-04-06T05:01:05;1.10;99.90
19037;DHT22;9651;49.138;8.900;2023-04-06T05:05:08;1.20;99.90
19037;DHT22;9651;49.138;8.900;2023-04-06T05:09:10;1.20;99.90
19037;DHT22;9651;49.138;8.900;2023-04-06T05:13:17;1.30;99.90
19037;DHT22;9651;49.138;8.900;2023-04-06T05:17:22;1.40;99.90
19037;DHT22;9651;49.138;8.900;2023-04-06T05:21:25;1.40;99.90
19037;DHT22;9651;49.138;8.900;2023-04-06T05:25:36;1.50;99.90
19037;DHT22;9651;49.138;8.900;2023-04-06T05:29:50;1.60;99.90
19037;DHT22;9651;49.138;8.900;2023-04-06T05:33:52;1.70;99.90
19037;DHT22;9651;49.138;8.900;2023-04-06T05:38:13;1.80;99.90
19037;DHT22;9651;49.138;8.900;2023-04-06T05:42:15;1.90;99.90
19037;DHT22;9651;49.138;8.900;2023-04-06T05:46:28;2.00;99.90
19037;DHT22;9651;49.138;8.900;2023-04-06T05:50:33;2.30;99.90
19037;DHT22;9651;49.138;8.900;2023-04-06T05:54:36;2.60;99.90
19037;DHT22;9651;49.138;8.900;2023-04-06T05:58:38;3.00;99.90
19037;DHT22;9651;49.138;8.900;2023-04-06T06:02:45;3.30;99.90
19037;DHT22;9651;49.138;8.900;2023-04-06T06:06:53;3.70;99.90
19037;DHT22;9651;49.138;8.900;2023-04-06T06:11:06;4.10;99.90
19037;DHT22;9651;49.138;8.900;2023-04-06T06:15:08;4.40;99.90
19037;DHT22;9651;49.138;8.900;2023-04-06T06:19:17;4.60;99.90
19037;DHT22;9651;49.138;8.900;2023-04-06T06:23:20;4.90;99.90
19037;DHT22;9651;49.138;8.900;2023-04-06T06:27:22;5.10;99.90
19037;DHT22;9651;49.138;8.900;2023-04-06T06:31:25;5.40;99.90
19037;DHT22;9651;49.138;8.900;2023-04-06T06:35:30;5.70;99.90
19037;DHT22;9651;49.138;8.900;2023-04-06T06:39:35;6.00;99.90
19037;DHT22;9651;49.138;8.900;2023-04-06T06:43:37;6.20;99.90
19037;DHT22;9651;49.138;8.900;2023-04-06T06:47:46;6.60;99.90
19037;DHT22;9651;49.138;8.900;2023-04-06T06:51:49;7.00;99.90
19037;DHT22;9651;49.138;8.900;2023-04-06T06:55:51;7.50;99.90
19037;DHT22;9651;49.138;8.900;2023-04-06T06:59:53;7.90;99.90
19037;DHT22;9651;49.138;8.900;2023-04-06T07:03:56;8.20;99.90
19037;DHT22;9651;49.138;8.900;2023-04-06T07:08:00;8.40;99.90
19037;DHT22;9651;49.138;8.900;2023-04-06T07:12:02;8.70;99.90
19037;DHT22;9651;49.138;8.900;2023-04-06T07:16:04;9.00;99.90
19037;DHT22;9651;49.138;8.900;2023-04-06T07:20:07;9.40;99.90
19037;DHT22;9651;49.138;8.900;2023-04-06T07:24:10;9.90;99.90
19037;DHT22;9651;49.138;8.900;2023-04-06T07:28:12;10.20;99.90
19037;DHT22;9651;49.138;8.900;2023-04-06T07:32:15;10.50;99.90
19037;DHT22;9651;49.138;8.900;2023-04-06T07:36:17;10.90;99.90
19037;DHT22;9651;49.138;8.900;2023-04-06T07:40:21;11.50;99.90
19037;DHT22;9651;49.138;8.900;2023-04-06T07:44:24;11.90;99.90
19037;DHT22;9651;49.138;8.900;2023-04-06T07:48:27;12.20;99.90
19037;DHT22;9651;49.138;8.900;2023-04-06T07:52:29;12.10;99.90
19037;DHT22;9651;49.138;8.900;2023-04-06T07:56:34;12.60;99.90
19037;DHT22;9651;49.138;8.900;2023-04-06T08:00:36;12.90;99.90
19037;DHT22;9651;49.138;8.900;2023-04-06T08:04:38;13.10;98.00
19037;DHT22;9651;49.138;8.900;2023-04-06T08:08:40;13.20;97.40
19037;DHT22;9651;49.138;8.900;2023-04-06T08:12:44;13.70;97.20
19037;DHT22;9651;49.138;8.900;2023-04-06T08:16:46;14.30;95.50
19037;DHT22;9651;49.138;8.900;2023-04-06T08:20:48;14.40;94.90
19037;DHT22;9651;49.138;8.900;2023-04-06T08:24:50;14.80;94.10
19037;DHT22;9651;49.138;8.900;2023-04-06T08:28:54;15.30;93.80
19037;DHT22;9651;49.138;8.900;2023-04-06T08:32:56;15.90;92.50
19037;DHT22;9651;49.138;8.900;2023-04-06T08:36:58;16.30;91.90
19037;DHT22;9651;49.138;8.900;2023-04-06T08:41:05;17.00;88.30
19037;DHT22;9651;49.138;8.900;2023-04-06T08:45:10;17.00;84.00
19037;DHT22;9651;49.138;8.900;2023-04-06T08:49:12;17.50;79.30
19037;DHT22;9651;49.138;8.900;2023-04-06T08:53:16;17.70;77.90
19037;DHT22;9651;49.138;8.900;2023-04-06T08:57:19;18.00;78.10
19037;DHT22;9651;49.138;8.900;2023-04-06T09:01:25;18.30;78.10
19037;DHT22;9651;49.138;8.900;2023-04-06T09:05:28;18.80;77.50
19037;DHT22;9651;49.138;8.900;2023-04-06T09:09:30;18.90;75.50
19037;DHT22;9651;49.138;8.900;2023-04-06T09:13:43;19.20;74.20
19037;DHT22;9651;49.138;8.900;2023-04-06T09:17:47;19.10;72.80
19037;DHT22;9651;49.138;8.900;2023-04-06T09:21:49;19.40;70.90
19037;DHT22;9651;49.138;8.900;2023-04-06T09:25:51;19.80;70.80
19037;DHT22;9651;49.138;8.900;2023-04-06T09:30:03;20.20;69.90
19037;DHT22;9651;49.138;8.900;2023-04-06T09:34:07;20.70;69.30
19037;DHT22;9651;49.138;8.900;2023-04-06T09:38:11;21.00;66.00
19037;DHT22;9651;49.138;8.900;2023-04-06T09:42:23;21.30;66.20
19037;DHT22;9651;49.138;8.900;2023-04-06T09:46:26;21.70;64.30
19037;DHT22;9651;49.138;8.900;2023-04-06T09:50:30;22.00;62.40
19037;DHT22;9651;49.138;8.900;2023-04-06T09:54:35;22.50;59.60
19037;DHT22;9651;49.138;8.900;2023-04-06T09:58:40;22.70;58.00
19037;DHT22;9651;49.138;8.900;2023-04-06T10:02:48;23.00;57.50
19037;DHT22;9651;49.138;8.900;2023-04-06T10:06:54;23.60;56.50
19037;DHT22;9651;49.138;8.900;2023-04-06T10:10:56;24.70;54.80
19037;DHT22;9651;49.138;8.900;2023-04-06T10:14:59;24.30;53.30
19037;DHT22;9651;49.138;8.900;2023-04-06T10:19:06;24.50;51.90
19037;DHT22;9651;49.138;8.900;2023-04-06T10:23:19;23.60;51.40
19037;DHT22;9651;49.138;8.900;2023-04-06T10:27:28;23.80;49.20
19037;DHT22;9651;49.138;8.900;2023-04-06T10:31:30;23.20;48.50
19037;DHT22;9651;49.138;8.900;2023-04-06T10:35:38;23.20;48.80
19037;DHT22;9651;49.138;8.900;2023-04-06T10:39:52;22.10;49.80
19037;DHT22;9651;49.138;8.900;2023-04-06T10:43:59;22.90;49.40
19037;DHT22;9651;49.138;8.900;2023-04-06T10:48:12;23.30;48.20
19037;DHT22;9651;49.138;8.900;2023-04-06T10:52:14;24.80;48.40
19037;DHT22;9651;49.138;8.900;2023-04-06T10:56:21;26.20;47.00
19037;DHT22;9651;49.138;8.900;2023-04-06T11:00:24;27.40;46.00
19037;DHT22;9651;49.138;8.900;2023-04-06T11:04:26;26.40;43.80
19037;DHT22;9651;49.138;8.900;2023-04-06T11:08:32;25.70;44.20
19037;DHT22;9651;49.138;8.900;2023-04-06T11:12:36;25.80;44.30
19037;DHT22;9651;49.138;8.900;2023-04-06T11:16:38;25.40;44.10
19037;DHT22;9651;49.138;8.900;2023-04-06T11:20:40;23.80;44.90
19037;DHT22;9651;49.138;8.900;2023-04-06T11:24:48;24.40;44.50
19037;DHT22;9651;49.138;8.900;2023-04-06T11:28:52;25.30;44.40
19037;DHT22;9651;49.138;8.900;2023-04-06T11:33:01;26.90;43.40
19037;DHT22;9651;49.138;8.900;2023-04-06T11:37:07;27.40;42.00
19037;DHT22;9651;49.138;8.900;2023-04-06T11:41:09;26.50;42.80
19037;DHT22;9651;49.138;8.900;2023-04-06T11:45:15;28.10;41.00
19037;DHT22;9651;49.138;8.900;2023-04-06T11:49:17;27.00;40.80
19037;DHT22;9651;49.138;8.900;2023-04-06T11:53:19;28.00;40.40
19037;DHT22;9651;49.138;8.900;2023-04-06T11:57:22;26.70;40.90
19037;DHT22;9651;49.138;8.900;2023-04-06T12:01:26;26.60;39.80
19037;DHT22;9651;49.138;8.900;2023-04-06T12:05:28;25.00;41.00
19037;DHT22;9651;49.138;8.900;2023-04-06T12:09:31;25.80;39.80
19037;DHT22;9651;49.138;8.900;2023-04-06T12:13:33;27.00;40.20
19037;DHT22;9651;49.138;8.900;2023-04-06T12:17:36;28.40;39.50
19037;DHT22;9651;49.138;8.900;2023-04-06T12:21:38;29.10;38.20
19037;DHT22;9651;49.138;8.900;2023-04-06T12:25:42;28.80;38.30
19037;DHT22;9651;49.138;8.900;2023-04-06T12:29:44;28.60;38.80
19037;DHT22;9651;49.138;8.900;2023-04-06T12:33:49;29.40;39.10
19037;DHT22;9651;49.138;8.900;2023-04-06T12:37:51;29.50;38.10
19037;DHT22;9651;49.138;8.900;2023-04-06T12:41:53;29.70;38.10
19037;DHT22;9651;49.138;8.900;2023-04-06T12:45:56;29.10;37.50
19037;DHT22;9651;49.138;8.900;2023-04-06T12:49:59;27.60;38.50
19037;DHT22;9651;49.138;8.900;2023-04-06T12:54:01;28.90;38.50
19037;DHT22;9651;49.138;8.900;2023-04-06T12:58:04;30.00;37.80
19037;DHT22;9651;49.138;8.900;2023-04-06T13:02:06;30.40;36.90
19037;DHT22;9651;49.138;8.900;2023-04-06T13:06:09;29.70;37.70
19037;DHT22;9651;49.138;8.900;2023-04-06T13:10:11;29.50;37.80
19037;DHT22;9651;49.138;8.900;2023-04-06T13:14:13;29.10;37.60
19037;DHT22;9651;49.138;8.900;2023-04-06T13:18:16;29.00;38.00
19037;DHT22;9651;49.138;8.900;2023-04-06T13:22:19;29.10;37.20
19037;DHT22;9651;49.138;8.900;2023-04-06T13:26:21;27.70;38.50
19037;DHT22;9651;49.138;8.900;2023-04-06T13:30:23;27.40;37.40
19037;DHT22;9651;49.138;8.900;2023-04-06T13:34:26;26.60;38.00
19037;DHT22;9651;49.138;8.900;2023-04-06T13:38:29;25.90;38.90
19037;DHT22;9651;49.138;8.900;2023-04-06T13:42:32;24.20;39.30
19037;DHT22;9651;49.138;8.900;2023-04-06T13:46:35;22.40;39.70
19037;DHT22;9651;49.138;8.900;2023-04-06T13:50:37;20.30;41.20
19037;DHT22;9651;49.138;8.900;2023-04-06T13:54:41;19.70;42.00
19037;DHT22;9651;49.138;8.900;2023-04-06T13:58:43;19.60;43.80
19037;DHT22;9651;49.138;8.900;2023-04-06T14:02:45;19.00;44.50
19037;DHT22;9651;49.138;8.900;2023-04-06T14:06:47;18.40;45.00
19037;DHT22;9651;49.138;8.900;2023-04-06T14:10:50;18.30;45.50
19037;DHT22;9651;49.138;8.900;2023-04-06T14:14:52;18.70;45.90
19037;DHT22;9651;49.138;8.900;2023-04-06T14:18:57;18.40;46.30
19037;DHT22;9651;49.138;8.900;2023-04-06T14:22:59;18.10;46.90
19037;DHT22;9651;49.138;8.900;2023-04-06T14:27:03;17.90;46.90
19037;DHT22;9651;49.138;8.900;2023-04-06T14:31:10;17.60;48.00
19037;DHT22;9651;49.138;8.900;2023-04-06T14:35:13;17.60;47.10
19037;DHT22;9651;49.138;8.900;2023-04-06T14:39:15;17.70;48.40
19037;DHT22;9651;49.138;8.900;2023-04-06T14:43:18;17.90;48.10
19037;DHT22;9651;49.138;8.900;2023-04-06T14:47:20;17.80;48.40
19037;DHT22;9651;49.138;8.900;2023-04-06T14:51:24;17.50;48.80
19037;DHT22;9651;49.138;8.900;2023-04-06T14:55:26;17.00;49.10
19037;DHT22;9651;49.138;8.900;2023-04-06T14:59:30;16.60;50.70
19037;DHT22;9651;49.138;8.900;2023-04-06T15:03:33;16.60;51.20
19037;DHT22;9651;49.138;8.900;2023-04-06T15:07:35;16.90;51.70
19037;DHT22;9651;49.138;8.900;2023-04-06T15:11:37;17.10;50.70
19037;DHT22;9651;49.138;8.900;2023-04-06T15:15:42;17.20;51.00
19037;DHT22;9651;49.138;8.900;2023-04-06T15:19:44;16.80;51.20
19037;DHT22;9651;49.138;8.900;2023-04-06T15:23:46;16.70;51.50
19037;DHT22;9651;49.138;8.900;2023-04-06T15:27:48;16.70;51.80
19037;DHT22;9651;49.138;8.900;2023-04-06T15:31:51;16.40;52.60
19037;DHT22;9651;49.138;8.900;2023-04-06T15:35:53;16.50;52.50
19037;DHT22;9651;49.138;8.900;2023-04-06T15:39:55;16.40;52.20
19037;DHT22;9651;49.138;8.900;2023-04-06T15:43:57;16.30;52.60
19037;DHT22;9651;49.138;8.900;2023-04-06T15:48:00;16.20;52.90
19037;DHT22;9651;49.138;8.900;2023-04-06T15:52:02;16.30;52.40
19037;DHT22;9651;49.138;8.900;2023-04-06T15:56:05;16.30;52.00
19037;DHT22;9651;49.138;8.900;2023-04-06T16:00:09;16.20;51.00
19037;DHT22;9651;49.138;8.900;2023-04-06T16:04:12;16.00;51.60
19037;DHT22;9651;49.138;8.900;2023-04-06T16:08:15;15.90;50.50
19037;DHT22;9651;49.138;8.900;2023-04-06T16:12:19;15.80;50.80
19037;DHT22;9651;49.138;8.900;2023-04-06T16:16:21;15.60;51.00
19037;DHT22;9651;49.138;8.900;2023-04-06T16:20:24;15.40;50.10
19037;DHT22;9651;49.138;8.900;2023-04-06T16:24:26;15.20;51.10
19037;DHT22;9651;49.138;8.900;2023-04-06T16:28:29;15.00;50.60
19037;DHT22;9651;49.138;8.900;2023-04-06T16:32:31;15.00;50.30
19037;DHT22;9651;49.138;8.900;2023-04-06T16:36:34;14.90;50.90
19037;DHT22;9651;49.138;8.900;2023-04-06T16:40:37;14.90;52.10
19037;DHT22;9651;49.138;8.900;2023-04-06T16:44:39;14.90;52.80
19037;DHT22;9651;49.138;8.900;2023-04-06T16:48:40;14.70;53.50
19037;DHT22;9651;49.138;8.900;2023-04-06T16:52:44;14.70;53.50
19037;DHT22;9651;49.138;8.900;2023-04-06T16:56:46;14.70;53.50
19037;DHT22;9651;49.138;8.900;2023-04-06T17:00:48;14.50;53.60
19037;DHT22;9651;49.138;8.900;2023-04-06T17:04:50;14.30;53.90
19037;DHT22;9651;49.138;8.900;2023-04-06T17:08:53;14.30;54.50
19037;DHT22;9651;49.138;8.900;2023-04-06T17:12:55;14.10;55.40
19037;DHT22;9651;49.138;8.900;2023-04-06T17:16:57;14.00;56.00
19037;DHT22;9651;49.138;8.900;2023-04-06T17:21:03;13.90;56.10
19037;DHT22;9651;49.138;8.900;2023-04-06T17:25:08;13.60;57.50
19037;DHT22;9651;49.138;8.900;2023-04-06T17:29:10;13.50;58.20
19037;DHT22;9651;49.138;8.900;2023-04-06T17:33:12;13.40;58.70
19037;DHT22;9651;49.138;8.900;2023-04-06T17:37:15;13.30;59.60
19037;DHT22;9651;49.138;8.900;2023-04-06T17:41:18;13.20;60.60
19037;DHT22;9651;49.138;8.900;2023-04-06T17:45:21;13.00;61.10
19037;DHT22;9651;49.138;8.900;2023-04-06T17:49:23;12.90;62.00
19037;DHT22;9651;49.138;8.900;2023-04-06T17:53:25;12.80;61.80
19037;DHT22;9651;49.138;8.900;2023-04-06T17:57:31;12.70;62.90
19037;DHT22;9651;49.138;8.900;2023-04-06T18:01:33;12.70;62.20
19037;DHT22;9651;49.138;8.900;2023-04-06T18:05:35;12.70;62.30
19037;DHT22;9651;49.138;8.900;2023-04-06T18:09:38;12.70;62.70
19037;DHT22;9651;49.138;8.900;2023-04-06T18:13:42;12.60;63.00
19037;DHT22;9651;49.138;8.900;2023-04-06T18:17:44;12.60;63.10
19037;DHT22;9651;49.138;8.900;2023-04-06T18:21:46;12.60;63.90
19037;DHT22;9651;49.138;8.900;2023-04-06T18:25:48;12.50;64.60
19037;DHT22;9651;49.138;8.900;2023-04-06T18:29:52;12.40;65.40
19037;DHT22;9651;49.138;8.900;2023-04-06T18:33:54;12.40;65.30
19037;DHT22;9651;49.138;8.900;2023-04-06T18:37:56;12.30;66.20
19037;DHT22;9651;49.138;8.900;2023-04-06T18:41:58;12.30;66.90
19037;DHT22;9651;49.138;8.900;2023-04-06T18:46:01;12.10;67.30
19037;DHT22;9651;49.138;8.900;2023-04-06T18:50:05;12.10;68.10
19037;DHT22;9651;49.138;8.900;2023-04-06T18:54:07;12.00;69.00
19037;DHT22;9651;49.138;8.900;2023-04-06T18:58:09;12.00;69.60
19037;DHT22;9651;49.138;8.900;2023-04-06T19:02:14;12.00;70.10
19037;DHT22;9651;49.138;8.900;2023-04-06T19:06:16;11.90;70.90
19037;DHT22;9651;49.138;8.900;2023-04-06T19:10:18;11.80;72.10
19037;DHT22;9651;49.138;8.900;2023-04-06T19:14:20;11.70;72.30
19037;DHT22;9651;49.138;8.900;2023-04-06T19:18:23;11.60;73.40
19037;DHT22;9651;49.138;8.900;2023-04-06T19:22:25;11.50;73.20
19037;DHT22;9651;49.138;8.900;2023-04-06T19:26:27;11.50;73.70
19037;DHT22;9651;49.138;8.900;2023-04-06T19:30:30;11.40;74.10
19037;DHT22;9651;49.138;8.900;2023-04-06T19:34:33;11.30;75.50
19037;DHT22;9651;49.138;8.900;2023-04-06T19:38:35;11.30;77.40
19037;DHT22;9651;49.138;8.900;2023-04-06T19:42:37;11.20;78.60
19037;DHT22;9651;49.138;8.900;2023-04-06T19:46:39;11.20;79.60
19037;DHT22;9651;49.138;8.900;2023-04-06T19:50:43;11.20;81.50
19037;DHT22;9651;49.138;8.900;2023-04-06T19:54:45;11.10;83.10
19037;DHT22;9651;49.138;8.900;2023-04-06T19:58:47;11.10;87.10
19037;DHT22;9651;49.138;8.900;2023-04-06T20:02:49;11.00;89.40
19037;DHT22;9651;49.138;8.900;2023-04-06T20:06:52;10.90;91.40
19037;DHT22;9651;49.138;8.900;2023-04-06T20:10:59;10.80;94.50
19037;DHT22;9651;49.138;8.900;2023-04-06T20:15:02;10.70;98.70
19037;DHT22;9651;49.138;8.900;2023-04-06T20:19:05;10.60;99.90
19037;DHT22;9651;49.138;8.900;2023-04-06T20:23:08;10.60;99.90
19037;DHT22;9651;49.138;8.900;2023-04-06T20:27:12;10.50;99.90
19037;DHT22;9651;49.138;8.900;2023-04-06T20:31:14;10.50;99.90
19037;DHT22;9651;49.138;8.900;2023-04-06T20:35:16;10.40;99.90
19037;DHT22;9651;49.138;8.900;2023-04-06T20:39:19;10.30;99.90
19037;DHT22;9651;49.138;8.900;2023-04-06T20:43:21;10.10;99.90
19037;DHT22;9651;49.138;8.900;2023-04-06T20:47:25;10.00;99.90
19037;DHT22;9651;49.138;8.900;2023-04-06T20:51:27;10.00;99.90
19037;DHT22;9651;49.138;8.900;2023-04-06T20:55:30;9.90;99.90
19037;DHT22;9651;49.138;8.900;2023-04-06T20:59:33;9.80;99.90
19037;DHT22;9651;49.138;8.900;2023-04-06T21:03:37;9.80;99.90
19037;DHT22;9651;49.138;8.900;2023-04-06T21:07:39;9.70;99.90
19037;DHT22;9651;49.138;8.900;2023-04-06T21:11:42;9.60;99.90
19037;DHT22;9651;49.138;8.900;2023-04-06T21:15:44;9.50;99.90
19037;DHT22;9651;49.138;8.900;2023-04-06T21:19:46;9.50;99.90
19037;DHT22;9651;49.138;8.900;2023-04-06T21:23:50;9.40;99.90
19037;DHT22;9651;49.138;8.900;2023-04-06T21:27:53;9.40;99.90
19037;DHT22;9651;49.138;8.900;2023-04-06T21:31:55;9.40;99.90
19037;DHT22;9651;49.138;8.900;2023-04-06T21:35:57;9.40;99.90
19037;DHT22;9651;49.138;8.900;2023-04-06T21:39:59;9.40;99.90
19037;DHT22;9651;49.138;8.900;2023-04-06T21:44:03;9.40;99.90
19037;DHT22;9651;49.138;8.900;2023-04-06T21:48:05;9.30;99.90
19037;DHT22;9651;49.138;8.900;2023-04-06T21:52:08;9.30;99.90
19037;DHT22;9651;49.138;8.900;2023-04-06T21:56:10;9.20;99.90
19037;DHT22;9651;49.138;8.900;2023-04-06T22:00:15;9.10;99.90
19037;DHT22;9651;49.138;8.900;2023-04-06T22:04:17;9.10;99.90
19037;DHT22;9651;49.138;8.900;2023-04-06T22:08:19;9.00;99.90
19037;DHT22;9651;49.138;8.900;2023-04-06T22:12:21;9.00;99.90
19037;DHT22;9651;49.138;8.900;2023-04-06T22:16:24;9.00;99.90
19037;DHT22;9651;49.138;8.900;2023-04-06T22:20:26;9.00;99.90
19037;DHT22;9651;49.138;8.900;2023-04-06T22:24:28;9.00;99.90
19037;DHT22;9651;49.138;8.900;2023-04-06T22:28:30;9.10;99.90
19037;DHT22;9651;49.138;8.900;2023-04-06T22:32:33;9.10;99.90
19037;DHT22;9651;49.138;8.900;2023-04-06T22:36:35;9.10;99.90
19037;DHT22;9651;49.138;8.900;2023-04-06T22:40:37;8.90;99.90
19037;DHT22;9651;49.138;8.900;2023-04-06T22:44:39;8.70;99.90
19037;DHT22;9651;49.138;8.900;2023-04-06T22:48:42;8.70;99.90
19037;DHT22;9651;49.138;8.900;2023-04-06T22:52:44;8.70;99.90
19037;DHT22;9651;49.138;8.900;2023-04-06T22:56:46;8.70;99.90
19037;DHT22;9651;49.138;8.900;2023-04-06T23:00:48;8.80;99.90
19037;DHT22;9651;49.138;8.900;2023-04-06T23:04:51;8.80;99.90
19037;DHT22;9651;49.138;8.900;2023-04-06T23:08:53;8.80;99.90
19037;DHT22;9651;49.138;8.900;2023-04-06T23:12:55;8.80;99.90
19037;DHT22;9651;49.138;8.900;2023-04-06T23:16:57;8.80;99.90
19037;DHT22;9651;49.138;8.900;2023-04-06T23:21:00;8.80;99.90
19037;DHT22;9651;49.138;8.900;2023-04-06T23:25:02;8.80;99.90
19037;DHT22;9651;49.138;8.900;2023-04-06T23:29:04;8.70;99.90
19037;DHT22;9651;49.138;8.900;2023-04-06T23:33:06;8.70;99.90
19037;DHT22;9651;49.138;8.900;2023-04-06T23:37:09;8.60;99.90
19037;DHT22;9651;49.138;8.900;2023-04-06T23:41:12;8.60;99.90
19037;DHT22;9651;49.138;8.900;2023-04-06T23:45:15;8.60;99.90
19037;DHT22;9651;49.138;8.900;2023-04-06T23:49:17;8.60;99.90
19037;DHT22;9651;49.138;8.900;2023-04-06T23:53:20;8.60;99.90
19037;DHT22;9651;49.138;8.900;2023-04-06T23:57:22;8.60;99.90
